Time;durP1;ratioP1;P1;durP2;ratioP2;P2;SDS_P1;SDS_P2;PMS_P1;PMS_P2;Temp;Humidity;BMP_temperature;BMP_pressure;BME280_temperature;BME280_humidity;BME280_pressure;Samples;Min_cycle;Max_cycle;Signal;HPM_P1;HPM_P2
2023/07/22 00:02:19;;;;;;;;;6.67;6.00;;;;;;;;4985922;28;45442;-79
2023/07/22 00:04:44;;;;;;;;;8.00;5.33;;;;;;;;4973815;28;45932;-80
2023/07/22 00:07:09;;;;;;;;;4.67;4.67;;;;;;;;4991414;28;45872;-80
2023/07/22 00:09:34;;;;;;;;;6.00;6.00;;;;;;;;4991903;28;45742;-80
2023/07/22 00:12:00;;;;;;;;;4.33;4.33;;;;;;;;4984887;28;45648;-80
2023/07/22 00:14:25;;;;;;;;;6.00;6.00;;;;;;;;4988067;28;45770;-79
2023/07/22 00:16:50;;;;;;;;;8.00;5.00;;;;;;;;4972665;28;47345;-79
2023/07/22 00:19:16;;;;;;;;;6.33;5.33;;;;;;;;4991604;28;45965;-74
2023/07/22 00:21:41;;;;;;;;;4.67;4.00;;;;;;;;4990071;28;45721;-75
2023/07/22 00:24:06;;;;;;;;;5.33;4.33;;;;;;;;4972682;28;46172;-74
2023/07/22 00:26:32;;;;;;;;;6.67;5.67;;;;;;;;4990149;28;45786;-74
2023/07/22 00:28:57;;;;;;;;;7.33;7.33;;;;;;;;4961910;28;45664;-75
2023/07/22 00:31:37;;;;;;;;;8.00;6.67;;;;;;;;4990533;28;45379;-75
2023/07/22 00:34:02;;;;;;;;;7.33;7.33;;;;;;;;4991371;28;45421;-76
2023/07/22 00:36:29;;;;;;;;;7.67;4.33;;;;;;;;4970472;28;47230;-74
2023/07/22 00:38:54;;;;;;;;;7.67;7.67;;;;;;;;4988639;28;45770;-75
2023/07/22 00:41:20;;;;;;;;;8.00;5.67;;;;;;;;4990139;28;45771;-75
2023/07/22 00:43:45;;;;;;;;;7.00;6.00;;;;;;;;4988592;28;45518;-74
2023/07/22 00:46:10;;;;;;;;;8.67;7.67;;;;;;;;4987280;28;47163;-74
2023/07/22 00:48:36;;;;;;;;;7.33;7.00;;;;;;;;4990686;28;46065;-73
2023/07/22 00:51:01;;;;;;;;;7.00;7.00;;;;;;;;4969845;28;45905;-73
2023/07/22 00:53:26;;;;;;;;;9.67;7.00;;;;;;;;4987246;28;47246;-75
2023/07/22 00:55:51;;;;;;;;;5.33;5.33;;;;;;;;4987851;28;45573;-73
2023/07/22 00:58:17;;;;;;;;;10.67;5.67;;;;;;;;4989840;28;45912;-74
2023/07/22 01:00:42;;;;;;;;;6.33;6.33;;;;;;;;4970613;28;46024;-75
2023/07/22 01:03:07;;;;;;;;;9.33;7.67;;;;;;;;4990758;28;46030;-75
2023/07/22 01:05:34;;;;;;;;;3.00;3.00;;;;;;;;4993221;28;45838;-74
2023/07/22 01:07:59;;;;;;;;;4.33;4.33;;;;;;;;4988409;28;46731;-75
2023/07/22 01:10:24;;;;;;;;;8.67;6.00;;;;;;;;4969820;28;45549;-73
2023/07/22 01:12:49;;;;;;;;;7.00;6.67;;;;;;;;4988449;28;45463;-75
2023/07/22 01:15:14;;;;;;;;;9.33;7.00;;;;;;;;4989073;28;46548;-72
2023/07/22 01:17:40;;;;;;;;;9.33;6.33;;;;;;;;4973029;28;45522;-76
2023/07/22 01:20:05;;;;;;;;;7.00;3.33;;;;;;;;4980823;28;45625;-74
2023/07/22 01:22:31;;;;;;;;;5.00;5.00;;;;;;;;4975506;28;47124;-75
2023/07/22 01:24:57;;;;;;;;;10.33;7.00;;;;;;;;4973225;28;47119;-75
2023/07/22 01:27:22;;;;;;;;;11.33;9.67;;;;;;;;4987042;28;46118;-73
2023/07/22 01:29:50;;;;;;;;;12.33;9.00;;;;;;;;4987313;28;46457;-74
2023/07/22 01:32:16;;;;;;;;;9.33;8.00;;;;;;;;4971708;28;47008;-74
2023/07/22 01:34:42;;;;;;;;;5.00;4.00;;;;;;;;4989371;28;45690;-74
2023/07/22 01:37:07;;;;;;;;;6.00;5.67;;;;;;;;4989114;28;45843;-74
2023/07/22 01:39:32;;;;;;;;;6.00;6.00;;;;;;;;4989243;28;45849;-74
2023/07/22 01:41:58;;;;;;;;;10.33;8.00;;;;;;;;4989449;28;46020;-77
2023/07/22 01:44:23;;;;;;;;;15.67;11.67;;;;;;;;4990245;28;46405;-73
2023/07/22 01:46:48;;;;;;;;;19.33;12.67;;;;;;;;4989604;28;45507;-73
2023/07/22 01:49:14;;;;;;;;;8.33;6.00;;;;;;;;4989270;28;45439;-73
2023/07/22 01:51:42;;;;;;;;;11.33;7.00;;;;;;;;4988853;28;45942;-75
2023/07/22 01:54:08;;;;;;;;;12.00;12.00;;;;;;;;4990544;28;46681;-80
2023/07/22 01:56:34;;;;;;;;;11.33;10.00;;;;;;;;4990678;28;45884;-77
2023/07/22 01:58:59;;;;;;;;;9.33;7.33;;;;;;;;4972682;28;45818;-80
2023/07/22 02:01:24;;;;;;;;;8.00;6.67;;;;;;;;4974536;28;45703;-75
2023/07/22 02:03:50;;;;;;;;;10.00;8.67;;;;;;;;4962407;28;48045;-79
2023/07/22 02:06:21;;;;;;;;;11.00;9.33;;;;;;;;4970213;28;45814;-75
2023/07/22 02:08:46;;;;;;;;;10.67;9.67;;;;;;;;4991068;28;45943;-76
2023/07/22 02:11:11;;;;;;;;;8.00;6.33;;;;;;;;4978796;28;47236;-74
2023/07/22 02:13:37;;;;;;;;;11.67;11.00;;;;;;;;4989355;28;45548;-76
2023/07/22 02:16:03;;;;;;;;;8.33;6.00;;;;;;;;4984130;28;45555;-79
2023/07/22 02:18:28;;;;;;;;;15.00;14.00;;;;;;;;4955032;28;45736;-80
2023/07/22 02:20:54;;;;;;;;;10.00;9.00;;;;;;;;4990800;28;45390;-77
2023/07/22 02:23:23;;;;;;;;;7.33;7.33;;;;;;;;4970622;28;48249;-78
2023/07/22 02:25:49;;;;;;;;;12.00;11.33;;;;;;;;4989366;28;45785;-78
2023/07/22 02:28:15;;;;;;;;;8.33;8.33;;;;;;;;4991714;28;45928;-78
2023/07/22 02:30:41;;;;;;;;;10.67;10.67;;;;;;;;4989918;28;45556;-80
2023/07/22 02:33:06;;;;;;;;;11.67;10.33;;;;;;;;4987566;28;45705;-79
2023/07/22 02:35:33;;;;;;;;;6.00;5.33;;;;;;;;4980109;28;45710;-75
2023/07/22 02:37:58;;;;;;;;;13.00;12.00;;;;;;;;4971550;28;45830;-78
2023/07/22 02:40:23;;;;;;;;;7.33;6.33;;;;;;;;4988966;28;45631;-75
2023/07/22 02:42:48;;;;;;;;;8.67;8.00;;;;;;;;4986938;28;46413;-75
2023/07/22 02:45:14;;;;;;;;;11.67;9.00;;;;;;;;4987845;28;45406;-74
2023/07/22 02:47:39;;;;;;;;;9.33;6.67;;;;;;;;4972268;28;45597;-78
2023/07/22 02:50:08;;;;;;;;;11.33;10.00;;;;;;;;4986294;28;45589;-80
2023/07/22 02:52:33;;;;;;;;;12.00;7.00;;;;;;;;4983315;28;45869;-80
2023/07/22 02:55:10;;;;;;;;;8.00;8.00;;;;;;;;4979623;28;45441;-78
2023/07/22 02:57:36;;;;;;;;;10.00;6.00;;;;;;;;4969942;28;45615;-78
2023/07/22 03:00:06;;;;;;;;;12.67;10.33;;;;;;;;4994311;28;45694;-79
2023/07/22 03:02:32;;;;;;;;;15.33;12.00;;;;;;;;4990580;28;45836;-79
2023/07/22 03:04:57;;;;;;;;;9.00;7.67;;;;;;;;4988697;28;45673;-78
2023/07/22 03:07:23;;;;;;;;;9.00;6.67;;;;;;;;4993578;28;45392;-79
2023/07/22 03:09:48;;;;;;;;;11.33;8.33;;;;;;;;4991674;28;45453;-79
2023/07/22 03:12:13;;;;;;;;;12.33;10.00;;;;;;;;4973413;28;46584;-77
2023/07/22 03:14:38;;;;;;;;;9.67;9.00;;;;;;;;4973781;28;45568;-79
2023/07/22 03:17:04;;;;;;;;;15.33;8.67;;;;;;;;4991800;28;46442;-77
2023/07/22 03:19:29;;;;;;;;;13.33;10.33;;;;;;;;4989773;28;45640;-78
2023/07/22 03:21:54;;;;;;;;;12.00;10.00;;;;;;;;4993497;28;45887;-78
2023/07/22 03:24:19;;;;;;;;;8.00;8.00;;;;;;;;4989383;28;45796;-78
2023/07/22 03:26:45;;;;;;;;;11.00;6.67;;;;;;;;4975958;28;45866;-77
2023/07/22 03:29:10;;;;;;;;;9.33;8.33;;;;;;;;4971881;28;45934;-79
2023/07/22 03:31:35;;;;;;;;;14.00;13.33;;;;;;;;4972766;28;48321;-78
2023/07/22 03:34:01;;;;;;;;;12.33;9.33;;;;;;;;4992141;28;45771;-78
2023/07/22 03:36:26;;;;;;;;;7.67;7.67;;;;;;;;4967361;28;45879;-77
2023/07/22 03:38:51;;;;;;;;;10.67;9.00;;;;;;;;4991485;28;45401;-78
2023/07/22 03:41:17;;;;;;;;;10.00;8.67;;;;;;;;4972641;28;47245;-78
2023/07/22 03:43:43;;;;;;;;;10.00;8.67;;;;;;;;4990516;28;45947;-79
2023/07/22 03:46:08;;;;;;;;;12.67;11.00;;;;;;;;4993839;28;45407;-78
2023/07/22 03:48:34;;;;;;;;;10.33;6.00;;;;;;;;4988194;28;45757;-78
2023/07/22 03:50:59;;;;;;;;;10.67;8.67;;;;;;;;4972729;28;47354;-77
2023/07/22 03:53:24;;;;;;;;;10.67;9.00;;;;;;;;4990740;28;45845;-73
2023/07/22 03:55:49;;;;;;;;;9.33;9.33;;;;;;;;4974503;28;45638;-73
2023/07/22 03:58:15;;;;;;;;;14.67;10.33;;;;;;;;4968256;28;45869;-74
2023/07/22 04:00:41;;;;;;;;;10.67;8.33;;;;;;;;4968304;28;48058;-75
2023/07/22 04:03:07;;;;;;;;;11.00;8.33;;;;;;;;4971828;28;46541;-79
2023/07/22 04:05:32;;;;;;;;;9.33;8.00;;;;;;;;4974144;28;46042;-73
2023/07/22 04:07:57;;;;;;;;;14.00;10.33;;;;;;;;4994686;28;45400;-80
2023/07/22 04:10:22;;;;;;;;;10.33;10.00;;;;;;;;4989258;28;46392;-79
2023/07/22 04:12:48;;;;;;;;;9.00;9.00;;;;;;;;4993485;28;45933;-79
2023/07/22 04:15:15;;;;;;;;;9.00;8.00;;;;;;;;4972664;28;45898;-78
2023/07/22 04:17:40;;;;;;;;;11.33;9.33;;;;;;;;4988708;28;45963;-79
2023/07/22 04:20:08;;;;;;;;;11.33;10.00;;;;;;;;4992184;28;46375;-79
2023/07/22 04:22:33;;;;;;;;;8.33;6.67;;;;;;;;4971235;28;45830;-77
2023/07/22 04:24:58;;;;;;;;;10.67;9.67;;;;;;;;4977338;28;45942;-77
2023/07/22 04:27:24;;;;;;;;;10.33;7.33;;;;;;;;4982018;28;46036;-77
2023/07/22 04:29:49;;;;;;;;;13.67;11.00;;;;;;;;4991548;28;45462;-78
2023/07/22 04:32:14;;;;;;;;;14.67;9.33;;;;;;;;4983080;28;45499;-74
2023/07/22 04:34:39;;;;;;;;;14.67;9.33;;;;;;;;4987044;28;45563;-74
2023/07/22 04:37:05;;;;;;;;;9.33;9.33;;;;;;;;4987280;28;45434;-74
2023/07/22 04:39:30;;;;;;;;;9.67;9.67;;;;;;;;4989700;28;46999;-74
2023/07/22 04:41:55;;;;;;;;;10.00;9.00;;;;;;;;4990216;28;45394;-74
2023/07/22 04:44:21;;;;;;;;;13.33;10.33;;;;;;;;4989560;28;45356;-74
2023/07/22 04:46:46;;;;;;;;;8.50;7.00;;;;;;;;4989229;28;45535;-73
2023/07/22 04:49:11;;;;;;;;;10.33;7.00;;;;;;;;4987628;28;45906;-79
2023/07/22 04:51:36;;;;;;;;;11.00;9.00;;;;;;;;4958758;28;44863;-79
2023/07/22 04:54:14;;;;;;;;;11.67;9.00;;;;;;;;4989533;28;46019;-80
2023/07/22 04:56:40;;;;;;;;;9.00;9.00;;;;;;;;4969902;28;45758;-79
2023/07/22 04:59:05;;;;;;;;;11.67;10.00;;;;;;;;4958597;28;46014;-77
2023/07/22 05:01:31;;;;;;;;;9.67;9.67;;;;;;;;4974233;28;45827;-77
2023/07/22 05:03:57;;;;;;;;;10.33;10.33;;;;;;;;4962415;28;45828;-78
2023/07/22 05:06:23;;;;;;;;;11.67;9.33;;;;;;;;4980640;28;45639;-78
2023/07/22 05:08:49;;;;;;;;;8.67;6.00;;;;;;;;4969894;28;46872;-78
2023/07/22 05:11:14;;;;;;;;;11.67;8.67;;;;;;;;4964502;28;45467;-78
2023/07/22 05:13:39;;;;;;;;;13.00;12.67;;;;;;;;4975000;28;45478;-77
2023/07/22 05:16:04;;;;;;;;;10.00;8.00;;;;;;;;4987136;28;46199;-79
2023/07/22 05:18:30;;;;;;;;;7.67;7.67;;;;;;;;4971224;28;46769;-79
2023/07/22 05:20:55;;;;;;;;;6.67;6.00;;;;;;;;4952124;28;45913;-73
2023/07/22 05:23:20;;;;;;;;;9.33;9.33;;;;;;;;4967929;28;45535;-72
2023/07/22 05:25:52;;;;;;;;;8.00;8.00;;;;;;;;4950917;28;46182;-74
2023/07/22 05:28:17;;;;;;;;;11.00;8.00;;;;;;;;4969552;28;45887;-72
2023/07/22 05:30:43;;;;;;;;;8.67;8.67;;;;;;;;4969075;28;45891;-75
2023/07/22 05:33:08;;;;;;;;;8.00;7.33;;;;;;;;4981432;28;45912;-74
2023/07/22 05:35:34;;;;;;;;;11.33;9.00;;;;;;;;4954398;28;46116;-75
2023/07/22 05:38:00;;;;;;;;;8.67;8.67;;;;;;;;4975565;28;45783;-74
2023/07/22 05:40:25;;;;;;;;;9.00;7.00;;;;;;;;4964324;28;45480;-74
2023/07/22 05:42:50;;;;;;;;;11.33;10.33;;;;;;;;4962224;28;45565;-78
2023/07/22 05:45:16;;;;;;;;;10.67;9.33;;;;;;;;4962197;28;45678;-78
2023/07/22 05:47:41;;;;;;;;;8.67;6.67;;;;;;;;4969137;28;45770;-80
2023/07/22 05:50:07;;;;;;;;;8.67;6.33;;;;;;;;4949857;28;45945;-79
2023/07/22 05:52:32;;;;;;;;;8.67;8.33;;;;;;;;4966539;28;45917;-79
2023/07/22 05:54:57;;;;;;;;;8.33;8.00;;;;;;;;4964957;28;45491;-79
2023/07/22 05:57:22;;;;;;;;;9.33;9.00;;;;;;;;4972122;28;45797;-78
2023/07/22 05:59:48;;;;;;;;;10.67;9.33;;;;;;;;4989758;28;45837;-78
2023/07/22 06:02:13;;;;;;;;;5.00;5.00;;;;;;;;4984317;28;45507;-81
2023/07/22 06:04:40;;;;;;;;;10.00;10.00;;;;;;;;4989251;28;45610;-81
2023/07/22 06:07:06;;;;;;;;;9.00;7.33;;;;;;;;4977057;28;45558;-80
2023/07/22 06:09:35;;;;;;;;;6.00;5.25;;;;;;;;4987116;28;45825;-77
2023/07/22 06:12:20;;;;;;;;;7.00;5.75;;;;;;;;4990584;28;45438;-78
2023/07/22 06:19:02;;;;;;;;;7.25;7.25;;;;;;;;4881165;29;45811;-76
2023/07/22 06:24:55;;;;;;;;;8.00;7.00;;;;;;;;4823688;29;45126;-78
2023/07/22 06:31:30;;;;;;;;;;;;;;;;;;;;;
2023/07/22 06:34:39;;;;;;;;;;;;;;;;;;;;;
2023/07/22 06:56:05;;;;;;;;;7.00;7.00;;;;;;;;4753700;29;45474;-79
2023/07/22 07:02:34;;;;;;;;;7.75;6.75;;;;;;;;4797670;29;45810;-79
2023/07/22 07:05:29;;;;;;;;;8.25;7.00;;;;;;;;4812382;29;45517;-79
2023/07/22 07:07:57;;;;;;;;;7.75;7.00;;;;;;;;4876027;28;45612;-78
2023/07/22 07:10:24;;;;;;;;;10.00;7.25;;;;;;;;4943035;28;46973;-78
2023/07/22 07:12:50;;;;;;;;;8.00;8.00;;;;;;;;4993631;28;45758;-78
2023/07/22 07:15:16;;;;;;;;;7.00;6.50;;;;;;;;4993788;28;46023;-79
2023/07/22 07:17:42;;;;;;;;;8.50;6.25;;;;;;;;4989865;28;45763;-78
2023/07/22 07:20:08;;;;;;;;;7.25;7.25;;;;;;;;4995222;28;45518;-79
2023/07/22 07:22:33;;;;;;;;;11.75;9.75;;;;;;;;4963527;28;45556;-77
2023/07/22 07:24:59;;;;;;;;;7.75;7.25;;;;;;;;4995516;28;45995;-82
2023/07/22 07:27:24;;;;;;;;;5.75;5.75;;;;;;;;4992645;28;45846;-77
2023/07/22 07:29:49;;;;;;;;;11.00;7.25;;;;;;;;4986389;28;45394;-76
2023/07/22 07:32:14;;;;;;;;;10.00;7.25;;;;;;;;4992525;28;45495;-76
2023/07/22 07:34:40;;;;;;;;;7.50;5.00;;;;;;;;4991005;28;45435;-77
2023/07/22 07:37:06;;;;;;;;;7.00;7.00;;;;;;;;4957140;28;46375;-76
2023/07/22 07:39:31;;;;;;;;;9.75;7.00;;;;;;;;4988421;28;45523;-77
2023/07/22 07:41:57;;;;;;;;;6.50;6.25;;;;;;;;4973656;28;45465;-80
2023/07/22 07:44:22;;;;;;;;;8.50;7.25;;;;;;;;4992576;28;45531;-80
2023/07/22 07:46:48;;;;;;;;;5.00;5.00;;;;;;;;4992066;28;46601;-80
2023/07/22 07:49:14;;;;;;;;;10.00;6.75;;;;;;;;4975556;28;45829;-76
2023/07/22 07:51:42;;;;;;;;;8.00;8.00;;;;;;;;4987674;28;45694;-77
2023/07/22 07:54:07;;;;;;;;;7.00;7.00;;;;;;;;4985168;28;46043;-79
2023/07/22 07:56:33;;;;;;;;;9.00;6.75;;;;;;;;4990621;28;46726;-79
2023/07/22 07:58:58;;;;;;;;;10.00;6.00;;;;;;;;4987216;28;45495;-78
2023/07/22 08:01:23;;;;;;;;;8.75;7.00;;;;;;;;4991869;28;45913;-78
2023/07/22 08:03:49;;;;;;;;;5.25;5.25;;;;;;;;4988771;28;45898;-78
2023/07/22 08:06:14;;;;;;;;;8.00;8.00;;;;;;;;5002536;28;46017;-77
2023/07/22 08:08:40;;;;;;;;;15.00;13.00;;;;;;;;4991737;28;45549;-78
2023/07/22 08:11:05;;;;;;;;;22.67;20.00;;;;;;;;4973538;28;45879;-77
2023/07/22 08:13:31;;;;;;;;;10.00;7.50;;;;;;;;5003274;28;45471;-78
2023/07/22 08:15:57;;;;;;;;;8.75;8.75;;;;;;;;4980889;28;45800;-77
2023/07/22 08:18:23;;;;;;;;;30.00;28.33;;;;;;;;4973122;28;45834;-77
2023/07/22 08:20:52;;;;;;;;;16.67;16.67;;;;;;;;4977549;28;45822;-79
2023/07/22 08:23:17;;;;;;;;;25.00;23.33;;;;;;;;4993090;28;45504;-80
2023/07/22 08:25:42;;;;;;;;;16.67;15.33;;;;;;;;4974984;28;47235;-76
2023/07/22 08:28:08;;;;;;;;;9.67;7.00;;;;;;;;4993049;28;45736;-81
2023/07/22 08:30:33;;;;;;;;;11.00;11.00;;;;;;;;4999494;28;45996;-77
2023/07/22 08:32:58;;;;;;;;;21.33;19.33;;;;;;;;4992055;28;45574;-76
2023/07/22 08:35:24;;;;;;;;;6.00;6.00;;;;;;;;4990489;28;45863;-78
2023/07/22 08:37:49;;;;;;;;;8.25;7.50;;;;;;;;4972191;28;46070;-75
2023/07/22 08:40:15;;;;;;;;;7.75;7.75;;;;;;;;4992925;28;45706;-79
2023/07/22 08:42:41;;;;;;;;;9.75;7.00;;;;;;;;4993542;28;45450;-80
2023/07/22 08:45:10;;;;;;;;;6.75;5.75;;;;;;;;4986913;28;46263;-79
2023/07/22 08:47:38;;;;;;;;;6.00;6.00;;;;;;;;4997721;28;45740;-79
2023/07/22 08:50:05;;;;;;;;;5.50;5.50;;;;;;;;4992649;28;45537;-80
2023/07/22 08:52:31;;;;;;;;;6.50;6.50;;;;;;;;4989827;28;46721;-80
2023/07/22 08:54:56;;;;;;;;;5.25;5.25;;;;;;;;4987469;28;45929;-79
2023/07/22 08:57:26;;;;;;;;;6.67;5.00;;;;;;;;4999086;28;45612;-78
2023/07/22 08:59:52;;;;;;;;;7.00;7.00;;;;;;;;4992343;28;45865;-80
2023/07/22 09:02:18;;;;;;;;;6.25;5.00;;;;;;;;4992865;28;45628;-79
2023/07/22 09:04:45;;;;;;;;;7.00;6.00;;;;;;;;4995678;28;45700;-78
2023/07/22 09:07:11;;;;;;;;;6.00;6.00;;;;;;;;4994188;28;45470;-79
2023/07/22 09:09:37;;;;;;;;;6.00;5.00;;;;;;;;4994511;28;45810;-78
2023/07/22 09:12:02;;;;;;;;;6.75;5.75;;;;;;;;4994197;28;45502;-78
2023/07/22 09:14:30;;;;;;;;;6.75;4.50;;;;;;;;4978081;28;46840;-78
2023/07/22 09:16:55;;;;;;;;;5.25;5.25;;;;;;;;4993881;28;45460;-77
2023/07/22 09:19:31;;;;;;;;;6.00;6.00;;;;;;;;4993436;28;45266;-82
2023/07/22 09:21:58;;;;;;;;;5.00;4.25;;;;;;;;4977492;28;47330;-80
2023/07/22 09:24:25;;;;;;;;;6.75;4.50;;;;;;;;4996650;28;45900;-80
2023/07/22 09:26:51;;;;;;;;;2.33;2.33;;;;;;;;4975586;28;46019;-80
2023/07/22 09:29:17;;;;;;;;;4.75;4.25;;;;;;;;4975462;28;45424;-82
2023/07/22 09:31:51;;;;;;;;;5.00;5.00;;;;;;;;4971618;28;45816;-79
2023/07/22 09:34:17;;;;;;;;;3.75;3.25;;;;;;;;4983146;28;45710;-80
2023/07/22 09:36:52;;;;;;;;;3.00;3.00;;;;;;;;4970775;28;45581;-80
2023/07/22 09:39:18;;;;;;;;;5.00;4.00;;;;;;;;4983811;28;45734;-79
2023/07/22 09:41:43;;;;;;;;;5.00;5.00;;;;;;;;4990711;28;45458;-79
2023/07/22 09:44:16;;;;;;;;;4.25;2.00;;;;;;;;4996381;28;45431;-84
2023/07/22 09:46:47;;;;;;;;;6.00;5.00;;;;;;;;4992827;28;45498;-80
2023/07/22 09:49:13;;;;;;;;;5.00;5.00;;;;;;;;4971117;28;45512;-79
2023/07/22 09:51:39;;;;;;;;;3.00;3.00;;;;;;;;4972182;28;45820;-81
2023/07/22 09:54:06;;;;;;;;;3.67;3.67;;;;;;;;4990405;28;46355;-80
2023/07/22 09:56:33;;;;;;;;;2.00;2.00;;;;;;;;4976027;28;46133;-82
2023/07/22 09:58:59;;;;;;;;;3.75;3.75;;;;;;;;4990027;28;45511;-80
2023/07/22 10:01:26;;;;;;;;;4.00;3.00;;;;;;;;4992919;28;46657;-79
2023/07/22 10:03:56;;;;;;;;;4.25;4.25;;;;;;;;4994017;28;45712;-80
2023/07/22 10:06:26;;;;;;;;;4.00;4.00;;;;;;;;4971214;28;45831;-80
2023/07/22 10:08:51;;;;;;;;;3.67;3.67;;;;;;;;4962804;28;45910;-79
2023/07/22 10:11:17;;;;;;;;;3.00;3.00;;;;;;;;4973242;28;45965;-79
2023/07/22 10:13:42;;;;;;;;;6.33;5.33;;;;;;;;4992325;28;46012;-78
2023/07/22 10:16:12;;;;;;;;;5.00;4.00;;;;;;;;4995965;28;45767;-87
2023/07/22 10:18:38;;;;;;;;;7.00;3.50;;;;;;;;4982437;28;45902;-78
2023/07/22 10:21:04;;;;;;;;;5.25;4.00;;;;;;;;4987696;28;45468;-79
2023/07/22 10:23:31;;;;;;;;;6.00;6.00;;;;;;;;4988313;28;46814;-79
2023/07/22 10:25:57;;;;;;;;;7.25;5.25;;;;;;;;4996100;28;45582;-78
2023/07/22 10:28:23;;;;;;;;;6.75;5.75;;;;;;;;4992509;28;45992;-81
2023/07/22 10:30:49;;;;;;;;;4.00;4.00;;;;;;;;4976925;28;45410;-79
2023/07/22 10:33:14;;;;;;;;;4.50;4.50;;;;;;;;4973317;28;48168;-79
2023/07/22 10:35:42;;;;;;;;;14.00;10.33;;;;;;;;4972271;28;46083;-79
2023/07/22 10:38:09;;;;;;;;;8.00;7.00;;;;;;;;4985657;28;45992;-82
2023/07/22 10:40:44;;;;;;;;;6.75;6.00;;;;;;;;4982721;28;46991;-82
2023/07/22 10:43:10;;;;;;;;;17.00;13.67;;;;;;;;4983037;28;46245;-82
2023/07/22 10:45:42;;;;;;;;;6.75;6.75;;;;;;;;4991798;28;45734;-82
2023/07/22 10:48:48;;;;;;;;;6.50;4.50;;;;;;;;4998397;28;46105;-77
2023/07/22 10:51:15;;;;;;;;;9.75;7.75;;;;;;;;4983430;28;45287;-82
2023/07/22 10:53:44;;;;;;;;;4.33;4.33;;;;;;;;4990807;28;46237;-83
2023/07/22 10:56:13;;;;;;;;;6.25;5.50;;;;;;;;4977586;28;45514;-77
2023/07/22 10:58:44;;;;;;;;;9.00;8.00;;;;;;;;4973400;28;45508;-77
2023/07/22 11:01:24;;;;;;;;;5.50;5.50;;;;;;;;4978493;28;46085;-80
2023/07/22 11:04:10;;;;;;;;;7.25;4.25;;;;;;;;4980801;28;47086;-81
2023/07/22 11:06:57;;;;;;;;;3.50;3.00;;;;;;;;4978851;28;45447;-79
2023/07/22 11:09:37;;;;;;;;;3.00;3.00;;;;;;;;4995039;28;45341;-78
2023/07/22 11:12:07;;;;;;;;;3.00;3.00;;;;;;;;4977537;28;45800;-76
2023/07/22 11:14:52;;;;;;;;;2.00;2.00;;;;;;;;4992298;28;46105;-77
2023/07/22 11:17:18;;;;;;;;;5.00;5.00;;;;;;;;4991115;28;45541;-76
2023/07/22 11:19:46;;;;;;;;;2.25;2.25;;;;;;;;4973914;28;45690;-78
2023/07/22 11:22:12;;;;;;;;;4.00;3.25;;;;;;;;4988740;28;45994;-79
2023/07/22 11:24:37;;;;;;;;;3.75;3.75;;;;;;;;4991506;28;45825;-79
2023/07/22 11:27:06;;;;;;;;;22.00;19.33;;;;;;;;4985367;28;45551;-79
2023/07/22 11:29:31;;;;;;;;;313.00;274.33;;;;;;;;4972765;28;46073;-74
2023/07/22 11:31:57;;;;;;;;;17.00;14.67;;;;;;;;4979458;28;45923;-74
2023/07/22 11:34:23;;;;;;;;;8.67;7.00;;;;;;;;4956159;28;46236;-76
2023/07/22 11:36:50;;;;;;;;;16.67;14.00;;;;;;;;4990960;28;46103;-76
2023/07/22 11:39:19;;;;;;;;;14.00;14.00;;;;;;;;4989523;28;45796;-78
2023/07/22 11:41:48;;;;;;;;;17.33;15.33;;;;;;;;4969453;28;46198;-75
2023/07/22 11:44:17;;;;;;;;;10.25;10.25;;;;;;;;4970726;28;47110;-77
2023/07/22 11:46:55;;;;;;;;;3.00;3.00;;;;;;;;4972129;28;45492;-76
2023/07/22 11:49:34;;;;;;;;;4.00;3.75;;;;;;;;4970401;28;45397;-78
2023/07/22 11:52:00;;;;;;;;;4.00;3.00;;;;;;;;4986703;28;45959;-79
2023/07/22 11:54:26;;;;;;;;;6.50;5.00;;;;;;;;4991012;28;46552;-80
2023/07/22 11:56:51;;;;;;;;;2.25;2.25;;;;;;;;4971423;28;45590;-80
2023/07/22 11:59:17;;;;;;;;;2.00;2.00;;;;;;;;4988977;28;45860;-79
2023/07/22 12:01:43;;;;;;;;;3.00;2.00;;;;;;;;4991213;28;45415;-78
2023/07/22 12:04:14;;;;;;;;;7.25;6.00;;;;;;;;4989282;28;46478;-80
2023/07/22 12:06:42;;;;;;;;;4.00;4.00;;;;;;;;4987734;28;45443;-79
2023/07/22 12:09:09;;;;;;;;;11.33;10.00;;;;;;;;4990776;28;45361;-80
2023/07/22 12:11:35;;;;;;;;;7.50;7.50;;;;;;;;4972434;28;45813;-80
2023/07/22 12:14:13;;;;;;;;;3.25;3.25;;;;;;;;4993665;28;45443;-79
2023/07/22 12:16:39;;;;;;;;;5.25;3.50;;;;;;;;4968399;28;45607;-81
2023/07/22 12:19:05;;;;;;;;;2.00;2.00;;;;;;;;4987758;28;45486;-79
2023/07/22 12:21:39;;;;;;;;;2.25;1.50;;;;;;;;4982523;28;45999;-76
2023/07/22 12:24:05;;;;;;;;;2.75;2.75;;;;;;;;4974761;28;47193;-76
2023/07/22 12:26:30;;;;;;;;;2.25;2.25;;;;;;;;4976532;28;45935;-75
2023/07/22 12:28:55;;;;;;;;;5.75;2.75;;;;;;;;4971450;28;45547;-77
2023/07/22 12:31:21;;;;;;;;;3.00;3.00;;;;;;;;4975313;28;45817;-75
2023/07/22 12:33:49;;;;;;;;;2.00;2.00;;;;;;;;4977369;28;46449;-74
2023/07/22 12:36:15;;;;;;;;;3.50;3.50;;;;;;;;4974634;28;45901;-76
2023/07/22 12:38:43;;;;;;;;;3.75;3.75;;;;;;;;4978532;28;45507;-75
2023/07/22 12:41:09;;;;;;;;;3.00;3.00;;;;;;;;4982875;28;45416;-74
2023/07/22 12:43:34;;;;;;;;;4.50;2.25;;;;;;;;4988361;28;45608;-75
2023/07/22 12:45:59;;;;;;;;;3.50;2.50;;;;;;;;4986694;28;45541;-74
2023/07/22 12:48:24;;;;;;;;;2.00;2.00;;;;;;;;4987711;28;45604;-74
2023/07/22 12:50:50;;;;;;;;;5.25;3.50;;;;;;;;4980255;28;45863;-74
2023/07/22 12:53:15;;;;;;;;;4.00;3.25;;;;;;;;4989196;28;47222;-75
2023/07/22 12:55:41;;;;;;;;;3.25;2.25;;;;;;;;4969802;28;46146;-74
2023/07/22 12:58:09;;;;;;;;;3.75;3.00;;;;;;;;4989706;28;45736;-75
2023/07/22 13:00:34;;;;;;;;;3.00;3.00;;;;;;;;4988421;28;45889;-73
2023/07/22 13:02:59;;;;;;;;;3.00;2.25;;;;;;;;4987361;28;46830;-74
2023/07/22 13:05:25;;;;;;;;;2.00;2.00;;;;;;;;4988632;28;45921;-76
2023/07/22 13:07:50;;;;;;;;;3.50;2.50;;;;;;;;4970715;28;45488;-75
2023/07/22 13:10:18;;;;;;;;;7.25;4.00;;;;;;;;4987712;28;45927;-76
2023/07/22 13:12:43;;;;;;;;;4.75;2.00;;;;;;;;4970876;28;45895;-75
2023/07/22 13:15:08;;;;;;;;;4.50;2.00;;;;;;;;4968138;28;45729;-77
2023/07/22 13:17:34;;;;;;;;;4.25;4.25;;;;;;;;4970850;28;45743;-74
2023/07/22 13:20:05;;;;;;;;;2.00;2.00;;;;;;;;4989166;28;45504;-81
2023/07/22 13:22:30;;;;;;;;;5.00;5.00;;;;;;;;4986112;28;46495;-74
2023/07/22 13:24:55;;;;;;;;;3.00;3.00;;;;;;;;4990374;28;46035;-74
2023/07/22 13:27:22;;;;;;;;;4.50;4.50;;;;;;;;4988582;28;45424;-82
2023/07/22 13:29:47;;;;;;;;;2.75;2.50;;;;;;;;4968236;28;45730;-76
2023/07/22 13:32:15;;;;;;;;;3.00;3.00;;;;;;;;4990334;28;45422;-79
2023/07/22 13:34:41;;;;;;;;;2.50;2.50;;;;;;;;4993463;28;45611;-81
2023/07/22 13:37:10;;;;;;;;;3.00;3.00;;;;;;;;4997452;28;46189;-87
2023/07/22 13:39:36;;;;;;;;;6.00;4.00;;;;;;;;4984154;28;45677;-79
2023/07/22 13:42:02;;;;;;;;;1.75;1.00;;;;;;;;4976456;28;47281;-80
2023/07/22 13:44:27;;;;;;;;;2.75;2.75;;;;;;;;4973222;28;45936;-78
2023/07/22 13:46:52;;;;;;;;;2.25;2.25;;;;;;;;4990298;28;45989;-75
2023/07/22 13:49:17;;;;;;;;;4.25;3.75;;;;;;;;4988401;28;45997;-78
2023/07/22 13:51:43;;;;;;;;;2.00;2.00;;;;;;;;4970689;28;45998;-79
2023/07/22 13:54:08;;;;;;;;;3.00;3.00;;;;;;;;4973393;28;46076;-79
2023/07/22 13:56:33;;;;;;;;;4.75;4.75;;;;;;;;4971310;28;45773;-78
2023/07/22 13:59:00;;;;;;;;;2.75;2.00;;;;;;;;4966586;28;45969;-79
2023/07/22 14:01:26;;;;;;;;;3.00;3.00;;;;;;;;4982552;28;46146;-79
2023/07/22 14:03:59;;;;;;;;;4.00;4.00;;;;;;;;4987600;28;45730;-76
2023/07/22 14:06:24;;;;;;;;;6.25;6.00;;;;;;;;4986794;28;46058;-74
2023/07/22 14:08:49;;;;;;;;;4.50;4.50;;;;;;;;4969116;28;45908;-74
2023/07/22 14:11:14;;;;;;;;;4.75;3.75;;;;;;;;4969205;28;48042;-79
2023/07/22 14:13:42;;;;;;;;;5.75;5.75;;;;;;;;4970776;28;45810;-81
2023/07/22 14:16:08;;;;;;;;;3.75;3.25;;;;;;;;4988598;28;45788;-80
2023/07/22 14:18:33;;;;;;;;;3.75;3.75;;;;;;;;4988081;28;45863;-81
2023/07/22 14:20:58;;;;;;;;;4.00;4.00;;;;;;;;4988259;28;46211;-79
2023/07/22 14:23:23;;;;;;;;;4.00;3.75;;;;;;;;4969256;28;45871;-79
2023/07/22 14:25:49;;;;;;;;;5.00;5.00;;;;;;;;4988590;28;45887;-79
2023/07/22 14:28:14;;;;;;;;;7.67;5.00;;;;;;;;4991107;28;45765;-79
2023/07/22 14:30:39;;;;;;;;;3.00;3.00;;;;;;;;4973492;28;46069;-75
2023/07/22 14:33:04;;;;;;;;;4.00;3.75;;;;;;;;4987096;28;45709;-75
2023/07/22 14:35:32;;;;;;;;;5.00;5.00;;;;;;;;4981885;28;45464;-78
2023/07/22 14:37:58;;;;;;;;;2.25;2.25;;;;;;;;4985396;28;45360;-79
2023/07/22 14:40:24;;;;;;;;;5.75;4.25;;;;;;;;4986582;28;46019;-79
2023/07/22 14:42:49;;;;;;;;;5.00;3.75;;;;;;;;4993419;28;45545;-77
2023/07/22 14:45:15;;;;;;;;;4.00;4.00;;;;;;;;4978062;28;45476;-78
2023/07/22 14:47:44;;;;;;;;;6.67;5.33;;;;;;;;4992504;28;45812;-77
2023/07/22 14:50:09;;;;;;;;;3.75;3.50;;;;;;;;4973718;28;47083;-79
2023/07/22 14:52:35;;;;;;;;;3.00;3.00;;;;;;;;4992725;28;45798;-79
2023/07/22 14:55:00;;;;;;;;;5.00;5.00;;;;;;;;4992350;28;45515;-78
2023/07/22 14:57:30;;;;;;;;;5.00;4.00;;;;;;;;4990382;28;45810;-79
2023/07/22 14:59:56;;;;;;;;;3.00;3.00;;;;;;;;4990784;28;46676;-78
2023/07/22 15:02:21;;;;;;;;;7.00;5.67;;;;;;;;4999893;28;45751;-77
2023/07/22 15:04:46;;;;;;;;;5.00;3.25;;;;;;;;4991261;28;45674;-79
2023/07/22 15:07:12;;;;;;;;;5.25;3.25;;;;;;;;5005887;28;45978;-79
2023/07/22 15:09:37;;;;;;;;;4.00;3.00;;;;;;;;4991894;28;46892;-78
2023/07/22 15:12:02;;;;;;;;;9.00;5.33;;;;;;;;4990562;28;45834;-78
2023/07/22 15:14:28;;;;;;;;;9.67;9.67;;;;;;;;4992443;28;45508;-80